sensor_id;sensor_type;location;lat;lon;timestamp;temperature;humidity
9043;DHT22;4556;49.150;8.808;2023-03-01T00:01:29;-1.20;99.90
9043;DHT22;4556;49.150;8.808;2023-03-01T00:03:57;-1.30;99.90
9043;DHT22;4556;49.150;8.808;2023-03-01T00:06:26;-1.20;99.90
9043;DHT22;4556;49.150;8.808;2023-03-01T00:08:54;-2.10;99.90
9043;DHT22;4556;49.150;8.808;2023-03-01T00:11:23;-0.50;99.90
9043;DHT22;4556;49.150;8.808;2023-03-01T00:13:52;-1.60;99.90
9043;DHT22;4556;49.150;8.808;2023-03-01T00:16:22;-1.60;99.90
9043;DHT22;4556;49.150;8.808;2023-03-01T00:18:49;-1.60;99.90
9043;DHT22;4556;49.150;8.808;2023-03-01T00:21:17;-1.60;99.90
9043;DHT22;4556;49.150;8.808;2023-03-01T00:23:46;-1.60;99.90
9043;DHT22;4556;49.150;8.808;2023-03-01T00:26:16;-1.50;99.90
9043;DHT22;4556;49.150;8.808;2023-03-01T00:28:43;-1.50;99.90
9043;DHT22;4556;49.150;8.808;2023-03-01T00:31:13;-1.60;99.90
9043;DHT22;4556;49.150;8.808;2023-03-01T00:33:40;-1.70;99.90
9043;DHT22;4556;49.150;8.808;2023-03-01T00:36:09;-1.70;99.90
9043;DHT22;4556;49.150;8.808;2023-03-01T00:38:37;-1.50;99.90
9043;DHT22;4556;49.150;8.808;2023-03-01T00:41:08;-1.60;99.90
9043;DHT22;4556;49.150;8.808;2023-03-01T00:43:35;-1.60;99.90
9043;DHT22;4556;49.150;8.808;2023-03-01T00:46:06;-1.60;99.90
9043;DHT22;4556;49.150;8.808;2023-03-01T00:48:34;-1.80;99.90
9043;DHT22;4556;49.150;8.808;2023-03-01T00:51:05;-1.80;99.90
9043;DHT22;4556;49.150;8.808;2023-03-01T00:53:33;-1.80;99.90
9043;DHT22;4556;49.150;8.808;2023-03-01T00:56:00;-1.30;99.90
9043;DHT22;4556;49.150;8.808;2023-03-01T00:58:29;-1.80;99.90
9043;DHT22;4556;49.150;8.808;2023-03-01T01:00:57;0.70;99.90
9043;DHT22;4556;49.150;8.808;2023-03-01T01:03:24;1.00;99.90
9043;DHT22;4556;49.150;8.808;2023-03-01T01:05:51;-0.60;99.90
9043;DHT22;4556;49.150;8.808;2023-03-01T01:08:18;-0.50;99.90
9043;DHT22;4556;49.150;8.808;2023-03-01T01:10:49;-1.60;99.90
9043;DHT22;4556;49.150;8.808;2023-03-01T01:13:28;-1.40;99.90
9043;DHT22;4556;49.150;8.808;2023-03-01T01:16:00;-1.90;99.90
9043;DHT22;4556;49.150;8.808;2023-03-01T01:18:27;-1.80;99.90
9043;DHT22;4556;49.150;8.808;2023-03-01T01:20:54;-0.50;99.90
9043;DHT22;4556;49.150;8.808;2023-03-01T01:23:22;-1.50;99.90
9043;DHT22;4556;49.150;8.808;2023-03-01T01:25:50;-1.40;99.90
9043;DHT22;4556;49.150;8.808;2023-03-01T01:28:17;0.40;99.90
9043;DHT22;4556;49.150;8.808;2023-03-01T01:30:45;0.50;99.90
9043;DHT22;4556;49.150;8.808;2023-03-01T01:33:12;-1.80;99.90
9043;DHT22;4556;49.150;8.808;2023-03-01T01:35:39;0.50;99.90
9043;DHT22;4556;49.150;8.808;2023-03-01T01:38:06;0.40;99.90
9043;DHT22;4556;49.150;8.808;2023-03-01T01:40:33;-1.60;99.90
9043;DHT22;4556;49.150;8.808;2023-03-01T01:43:00;-2.20;99.90
9043;DHT22;4556;49.150;8.808;2023-03-01T01:45:32;-1.60;99.90
9043;DHT22;4556;49.150;8.808;2023-03-01T01:48:04;-1.60;99.90
9043;DHT22;4556;49.150;8.808;2023-03-01T01:50:34;-1.00;99.90
9043;DHT22;4556;49.150;8.808;2023-03-01T01:53:07;-1.70;99.90
9043;DHT22;4556;49.150;8.808;2023-03-01T01:55:37;-1.70;99.90
9043;DHT22;4556;49.150;8.808;2023-03-01T01:58:07;-1.70;99.90
9043;DHT22;4556;49.150;8.808;2023-03-01T02:00:37;-1.60;99.90
9043;DHT22;4556;49.150;8.808;2023-03-01T02:03:09;-1.80;99.90
9043;DHT22;4556;49.150;8.808;2023-03-01T02:05:42;-1.70;99.90
9043;DHT22;4556;49.150;8.808;2023-03-01T02:08:11;0.00;99.90
9043;DHT22;4556;49.150;8.808;2023-03-01T02:10:39;0.60;99.90
9043;DHT22;4556;49.150;8.808;2023-03-01T02:13:07;0.80;99.90
9043;DHT22;4556;49.150;8.808;2023-03-01T02:15:36;-0.30;99.90
9043;DHT22;4556;49.150;8.808;2023-03-01T02:18:06;-1.70;99.90
9043;DHT22;4556;49.150;8.808;2023-03-01T02:20:38;-1.70;99.90
9043;DHT22;4556;49.150;8.808;2023-03-01T02:23:07;-1.70;99.90
9043;DHT22;4556;49.150;8.808;2023-03-01T02:25:41;-1.80;99.90
9043;DHT22;4556;49.150;8.808;2023-03-01T02:28:23;-1.00;99.90
9043;DHT22;4556;49.150;8.808;2023-03-01T02:30:50;-3.70;99.90
9043;DHT22;4556;49.150;8.808;2023-03-01T02:33:32;-1.90;99.90
9043;DHT22;4556;49.150;8.808;2023-03-01T02:36:03;-1.80;99.90
9043;DHT22;4556;49.150;8.808;2023-03-01T02:38:32;-1.90;99.90
9043;DHT22;4556;49.150;8.808;2023-03-01T02:41:00;-1.60;99.90
9043;DHT22;4556;49.150;8.808;2023-03-01T02:43:31;-2.00;99.90
9043;DHT22;4556;49.150;8.808;2023-03-01T02:46:03;-1.80;99.90
9043;DHT22;4556;49.150;8.808;2023-03-01T02:48:40;-1.90;99.90
9043;DHT22;4556;49.150;8.808;2023-03-01T02:51:18;-2.40;99.90
9043;DHT22;4556;49.150;8.808;2023-03-01T02:53:55;-2.30;99.90
9043;DHT22;4556;49.150;8.808;2023-03-01T02:56:25;-2.50;99.90
9043;DHT22;4556;49.150;8.808;2023-03-01T02:58:54;-0.60;99.90
9043;DHT22;4556;49.150;8.808;2023-03-01T03:01:27;-2.20;99.90
9043;DHT22;4556;49.150;8.808;2023-03-01T03:04:04;-2.20;99.90
9043;DHT22;4556;49.150;8.808;2023-03-01T03:06:31;-2.10;99.90
9043;DHT22;4556;49.150;8.808;2023-03-01T03:08:58;-2.00;99.90
9043;DHT22;4556;49.150;8.808;2023-03-01T03:11:25;-2.00;99.90
9043;DHT22;4556;49.150;8.808;2023-03-01T03:13:54;-1.70;99.90
9043;DHT22;4556;49.150;8.808;2023-03-01T03:16:21;-1.90;99.90
9043;DHT22;4556;49.150;8.808;2023-03-01T03:18:48;-1.90;99.90
9043;DHT22;4556;49.150;8.808;2023-03-01T03:21:16;-1.80;99.90
9043;DHT22;4556;49.150;8.808;2023-03-01T03:23:43;-1.70;99.90
9043;DHT22;4556;49.150;8.808;2023-03-01T03:26:10;-1.20;99.90
9043;DHT22;4556;49.150;8.808;2023-03-01T03:28:40;-1.80;99.90
9043;DHT22;4556;49.150;8.808;2023-03-01T03:31:10;-2.00;99.90
9043;DHT22;4556;49.150;8.808;2023-03-01T03:33:37;-2.10;99.90
9043;DHT22;4556;49.150;8.808;2023-03-01T03:36:05;-2.50;99.90
9043;DHT22;4556;49.150;8.808;2023-03-01T03:38:33;-2.60;99.90
9043;DHT22;4556;49.150;8.808;2023-03-01T03:41:02;-2.70;99.90
9043;DHT22;4556;49.150;8.808;2023-03-01T03:43:31;-2.80;99.90
9043;DHT22;4556;49.150;8.808;2023-03-01T03:45:58;-2.80;99.90
9043;DHT22;4556;49.150;8.808;2023-03-01T03:48:27;-2.90;99.90
9043;DHT22;4556;49.150;8.808;2023-03-01T03:50:55;-2.80;99.90
9043;DHT22;4556;49.150;8.808;2023-03-01T03:53:24;-2.90;99.90
9043;DHT22;4556;49.150;8.808;2023-03-01T03:55:51;-2.80;99.90
9043;DHT22;4556;49.150;8.808;2023-03-01T03:58:20;-1.30;99.90
9043;DHT22;4556;49.150;8.808;2023-03-01T04:00:50;-2.70;99.90
9043;DHT22;4556;49.150;8.808;2023-03-01T04:03:19;-2.60;99.90
9043;DHT22;4556;49.150;8.808;2023-03-01T04:05:48;-2.50;99.90
9043;DHT22;4556;49.150;8.808;2023-03-01T04:08:22;-2.30;99.90
9043;DHT22;4556;49.150;8.808;2023-03-01T04:10:51;-2.30;99.90
9043;DHT22;4556;49.150;8.808;2023-03-01T04:13:21;-2.30;99.90
9043;DHT22;4556;49.150;8.808;2023-03-01T04:15:48;-2.40;99.90
9043;DHT22;4556;49.150;8.808;2023-03-01T04:18:17;-2.30;99.90
9043;DHT22;4556;49.150;8.808;2023-03-01T04:20:44;-2.40;99.90
9043;DHT22;4556;49.150;8.808;2023-03-01T04:23:16;-2.50;99.90
9043;DHT22;4556;49.150;8.808;2023-03-01T04:25:46;-2.40;99.90
9043;DHT22;4556;49.150;8.808;2023-03-01T04:28:19;-2.40;99.90
9043;DHT22;4556;49.150;8.808;2023-03-01T04:30:46;-2.30;99.90
9043;DHT22;4556;49.150;8.808;2023-03-01T04:33:13;-2.30;99.90
9043;DHT22;4556;49.150;8.808;2023-03-01T04:35:40;-2.30;99.90
9043;DHT22;4556;49.150;8.808;2023-03-01T04:38:08;-2.30;99.90
9043;DHT22;4556;49.150;8.808;2023-03-01T04:40:37;-2.30;99.90
9043;DHT22;4556;49.150;8.808;2023-03-01T04:43:04;-2.30;99.90
9043;DHT22;4556;49.150;8.808;2023-03-01T04:45:32;-2.30;99.90
9043;DHT22;4556;49.150;8.808;2023-03-01T04:48:00;-2.40;99.90
9043;DHT22;4556;49.150;8.808;2023-03-01T04:50:27;-0.90;99.90
9043;DHT22;4556;49.150;8.808;2023-03-01T04:52:55;-2.40;99.90
9043;DHT22;4556;49.150;8.808;2023-03-01T04:55:24;-2.40;99.90
9043;DHT22;4556;49.150;8.808;2023-03-01T04:57:53;-2.50;99.90
9043;DHT22;4556;49.150;8.808;2023-03-01T05:00:21;-1.60;99.90
9043;DHT22;4556;49.150;8.808;2023-03-01T05:02:50;-2.50;99.90
9043;DHT22;4556;49.150;8.808;2023-03-01T05:05:20;-2.50;99.90
9043;DHT22;4556;49.150;8.808;2023-03-01T05:07:51;-2.40;99.90
9043;DHT22;4556;49.150;8.808;2023-03-01T05:10:18;-2.40;99.90
9043;DHT22;4556;49.150;8.808;2023-03-01T05:12:45;-2.40;99.90
9043;DHT22;4556;49.150;8.808;2023-03-01T05:15:15;-1.10;99.90
9043;DHT22;4556;49.150;8.808;2023-03-01T05:17:42;-2.40;99.90
9043;DHT22;4556;49.150;8.808;2023-03-01T05:20:10;-2.40;99.90
9043;DHT22;4556;49.150;8.808;2023-03-01T05:22:37;-2.10;99.90
9043;DHT22;4556;49.150;8.808;2023-03-01T05:25:05;-2.50;99.90
9043;DHT22;4556;49.150;8.808;2023-03-01T05:27:33;-2.40;99.90
9043;DHT22;4556;49.150;8.808;2023-03-01T05:30:00;-2.30;99.90
9043;DHT22;4556;49.150;8.808;2023-03-01T05:32:41;-2.40;99.90
9043;DHT22;4556;49.150;8.808;2023-03-01T05:35:11;-2.40;99.90
9043;DHT22;4556;49.150;8.808;2023-03-01T05:37:41;-2.40;99.90
9043;DHT22;4556;49.150;8.808;2023-03-01T05:40:10;-2.50;99.90
9043;DHT22;4556;49.150;8.808;2023-03-01T05:42:42;-2.50;99.90
9043;DHT22;4556;49.150;8.808;2023-03-01T05:45:10;-2.50;99.90
9043;DHT22;4556;49.150;8.808;2023-03-01T05:47:39;-2.60;99.90
9043;DHT22;4556;49.150;8.808;2023-03-01T05:50:11;-2.60;99.90
9043;DHT22;4556;49.150;8.808;2023-03-01T05:52:38;-2.60;99.90
9043;DHT22;4556;49.150;8.808;2023-03-01T05:55:06;-2.60;99.90
9043;DHT22;4556;49.150;8.808;2023-03-01T05:57:33;-2.60;99.90
9043;DHT22;4556;49.150;8.808;2023-03-01T06:00:01;-2.60;99.90
9043;DHT22;4556;49.150;8.808;2023-03-01T06:02:28;-2.60;99.90
9043;DHT22;4556;49.150;8.808;2023-03-01T06:04:57;-2.60;99.90
9043;DHT22;4556;49.150;8.808;2023-03-01T06:07:24;-2.60;99.90
9043;DHT22;4556;49.150;8.808;2023-03-01T06:09:51;-2.60;99.90
9043;DHT22;4556;49.150;8.808;2023-03-01T06:12:18;-2.50;99.90
9043;DHT22;4556;49.150;8.808;2023-03-01T06:14:46;-2.50;99.90
9043;DHT22;4556;49.150;8.808;2023-03-01T06:17:14;-2.50;99.90
9043;DHT22;4556;49.150;8.808;2023-03-01T06:19:41;-2.50;99.90
9043;DHT22;4556;49.150;8.808;2023-03-01T06:22:09;-2.50;99.90
9043;DHT22;4556;49.150;8.808;2023-03-01T06:24:36;-1.00;99.90
9043;DHT22;4556;49.150;8.808;2023-03-01T06:27:03;-3.10;99.90
9043;DHT22;4556;49.150;8.808;2023-03-01T06:29:31;-2.50;99.90
9043;DHT22;4556;49.150;8.808;2023-03-01T06:31:58;-2.50;99.90
9043;DHT22;4556;49.150;8.808;2023-03-01T06:34:25;-2.40;99.90
9043;DHT22;4556;49.150;8.808;2023-03-01T06:36:52;0.10;99.90
9043;DHT22;4556;49.150;8.808;2023-03-01T06:39:22;-2.00;99.90
9043;DHT22;4556;49.150;8.808;2023-03-01T06:41:49;-1.80;99.90
9043;DHT22;4556;49.150;8.808;2023-03-01T06:44:16;0.70;99.90
9043;DHT22;4556;49.150;8.808;2023-03-01T06:46:44;-1.80;99.90
9043;DHT22;4556;49.150;8.808;2023-03-01T06:49:11;-2.30;99.90
9043;DHT22;4556;49.150;8.808;2023-03-01T06:51:38;0.30;99.90
9043;DHT22;4556;49.150;8.808;2023-03-01T06:54:05;0.40;99.90
9043;DHT22;4556;49.150;8.808;2023-03-01T06:56:33;-1.90;99.90
9043;DHT22;4556;49.150;8.808;2023-03-01T06:59:01;-1.70;99.90
9043;DHT22;4556;49.150;8.808;2023-03-01T07:01:29;-1.70;99.90
9043;DHT22;4556;49.150;8.808;2023-03-01T07:03:56;0.00;99.90
9043;DHT22;4556;49.150;8.808;2023-03-01T07:06:24;-0.50;99.90
9043;DHT22;4556;49.150;8.808;2023-03-01T07:08:51;-0.30;99.90
9043;DHT22;4556;49.150;8.808;2023-03-01T07:11:18;0.00;99.90
9043;DHT22;4556;49.150;8.808;2023-03-01T07:13:47;1.40;99.90
9043;DHT22;4556;49.150;8.808;2023-03-01T07:18:42;-1.20;99.90
9043;DHT22;4556;49.150;8.808;2023-03-01T07:21:12;1.10;99.90
9043;DHT22;4556;49.150;8.808;2023-03-01T07:23:39;-1.10;99.90
9043;DHT22;4556;49.150;8.808;2023-03-01T07:26:07;0.70;99.90
9043;DHT22;4556;49.150;8.808;2023-03-01T07:28:34;-0.50;99.90
9043;DHT22;4556;49.150;8.808;2023-03-01T07:31:06;0.10;99.90
9043;DHT22;4556;49.150;8.808;2023-03-01T07:33:33;-1.00;99.90
9043;DHT22;4556;49.150;8.808;2023-03-01T07:36:02;0.30;99.90
9043;DHT22;4556;49.150;8.808;2023-03-01T07:38:30;1.80;99.90
9043;DHT22;4556;49.150;8.808;2023-03-01T07:40:59;1.90;99.90
9043;DHT22;4556;49.150;8.808;2023-03-01T07:43:26;-0.60;99.90
9043;DHT22;4556;49.150;8.808;2023-03-01T07:45:53;2.40;99.90
9043;DHT22;4556;49.150;8.808;2023-03-01T07:48:22;0.20;99.90
9043;DHT22;4556;49.150;8.808;2023-03-01T07:50:49;-0.30;99.90
9043;DHT22;4556;49.150;8.808;2023-03-01T07:53:16;-0.30;99.90
9043;DHT22;4556;49.150;8.808;2023-03-01T07:55:44;1.70;99.90
9043;DHT22;4556;49.150;8.808;2023-03-01T07:58:10;1.50;99.90
9043;DHT22;4556;49.150;8.808;2023-03-01T08:00:38;0.80;99.90
9043;DHT22;4556;49.150;8.808;2023-03-01T08:03:05;3.10;99.90
9043;DHT22;4556;49.150;8.808;2023-03-01T08:05:33;0.30;99.90
9043;DHT22;4556;49.150;8.808;2023-03-01T08:08:00;0.30;99.90
9043;DHT22;4556;49.150;8.808;2023-03-01T08:10:27;2.50;99.90
9043;DHT22;4556;49.150;8.808;2023-03-01T08:12:54;3.00;99.90
9043;DHT22;4556;49.150;8.808;2023-03-01T08:15:21;1.70;99.90
9043;DHT22;4556;49.150;8.808;2023-03-01T08:17:49;0.50;99.90
9043;DHT22;4556;49.150;8.808;2023-03-01T08:20:17;0.20;99.90
9043;DHT22;4556;49.150;8.808;2023-03-01T08:22:46;1.80;99.90
9043;DHT22;4556;49.150;8.808;2023-03-01T08:25:13;3.50;99.90
9043;DHT22;4556;49.150;8.808;2023-03-01T08:27:40;0.50;99.90
9043;DHT22;4556;49.150;8.808;2023-03-01T08:30:08;2.20;99.90
9043;DHT22;4556;49.150;8.808;2023-03-01T08:32:36;0.60;99.90
9043;DHT22;4556;49.150;8.808;2023-03-01T08:35:05;0.70;99.90
9043;DHT22;4556;49.150;8.808;2023-03-01T08:37:35;1.00;99.90
9043;DHT22;4556;49.150;8.808;2023-03-01T08:40:05;-0.10;99.90
9043;DHT22;4556;49.150;8.808;2023-03-01T08:42:35;0.90;99.90
9043;DHT22;4556;49.150;8.808;2023-03-01T08:45:03;3.00;99.90
9043;DHT22;4556;49.150;8.808;2023-03-01T08:47:30;0.80;99.90
9043;DHT22;4556;49.150;8.808;2023-03-01T08:49:59;0.90;99.90
9043;DHT22;4556;49.150;8.808;2023-03-01T08:52:26;0.00;99.90
9043;DHT22;4556;49.150;8.808;2023-03-01T08:54:53;3.10;99.90
9043;DHT22;4556;49.150;8.808;2023-03-01T08:57:22;1.30;99.90
9043;DHT22;4556;49.150;8.808;2023-03-01T08:59:49;1.40;99.90
9043;DHT22;4556;49.150;8.808;2023-03-01T09:02:17;1.20;99.90
9043;DHT22;4556;49.150;8.808;2023-03-01T09:04:45;2.30;99.90
9043;DHT22;4556;49.150;8.808;2023-03-01T09:07:12;1.40;99.90
9043;DHT22;4556;49.150;8.808;2023-03-01T09:09:39;2.70;99.90
9043;DHT22;4556;49.150;8.808;2023-03-01T09:12:07;4.00;99.90
9043;DHT22;4556;49.150;8.808;2023-03-01T09:14:35;3.60;99.90
9043;DHT22;4556;49.150;8.808;2023-03-01T09:17:04;5.00;99.90
9043;DHT22;4556;49.150;8.808;2023-03-01T09:19:30;3.20;99.90
9043;DHT22;4556;49.150;8.808;2023-03-01T09:21:58;4.80;99.90
9043;DHT22;4556;49.150;8.808;2023-03-01T09:24:25;1.80;99.90
9043;DHT22;4556;49.150;8.808;2023-03-01T09:26:55;0.60;99.90
9043;DHT22;4556;49.150;8.808;2023-03-01T09:29:23;2.00;99.90
9043;DHT22;4556;49.150;8.808;2023-03-01T09:31:52;5.10;99.90
9043;DHT22;4556;49.150;8.808;2023-03-01T09:34:21;3.30;99.90
9043;DHT22;4556;49.150;8.808;2023-03-01T09:36:49;2.20;99.90
9043;DHT22;4556;49.150;8.808;2023-03-01T09:39:17;2.30;99.90
9043;DHT22;4556;49.150;8.808;2023-03-01T09:41:49;3.30;99.90
9043;DHT22;4556;49.150;8.808;2023-03-01T09:44:27;2.90;99.90
9043;DHT22;4556;49.150;8.808;2023-03-01T09:46:56;2.70;99.90
9043;DHT22;4556;49.150;8.808;2023-03-01T09:49:25;2.50;99.90
9043;DHT22;4556;49.150;8.808;2023-03-01T09:51:58;4.60;99.90
9043;DHT22;4556;49.150;8.808;2023-03-01T09:54:26;4.40;99.90
9043;DHT22;4556;49.150;8.808;2023-03-01T09:57:03;4.40;99.90
9043;DHT22;4556;49.150;8.808;2023-03-01T09:59:39;3.20;99.90
9043;DHT22;4556;49.150;8.808;2023-03-01T10:02:23;1.10;99.90
9043;DHT22;4556;49.150;8.808;2023-03-01T10:04:55;2.70;99.90
9043;DHT22;4556;49.150;8.808;2023-03-01T10:07:32;5.60;99.90
9043;DHT22;4556;49.150;8.808;2023-03-01T10:10:05;6.10;99.90
9043;DHT22;4556;49.150;8.808;2023-03-01T10:12:36;2.70;99.90
9043;DHT22;4556;49.150;8.808;2023-03-01T10:15:07;2.80;99.90
9043;DHT22;4556;49.150;8.808;2023-03-01T10:17:43;1.20;99.90
9043;DHT22;4556;49.150;8.808;2023-03-01T10:20:19;4.70;99.90
9043;DHT22;4556;49.150;8.808;2023-03-01T10:22:47;3.20;99.90
9043;DHT22;4556;49.150;8.808;2023-03-01T10:25:20;3.30;99.90
9043;DHT22;4556;49.150;8.808;2023-03-01T10:27:53;3.30;99.90
9043;DHT22;4556;49.150;8.808;2023-03-01T10:30:22;3.50;99.90
9043;DHT22;4556;49.150;8.808;2023-03-01T10:33:16;6.70;99.90
9043;DHT22;4556;49.150;8.808;2023-03-01T10:35:44;3.70;99.90
9043;DHT22;4556;49.150;8.808;2023-03-01T10:38:13;3.50;99.90
9043;DHT22;4556;49.150;8.808;2023-03-01T10:40:51;3.70;99.90
9043;DHT22;4556;49.150;8.808;2023-03-01T10:43:19;5.30;99.90
9043;DHT22;4556;49.150;8.808;2023-03-01T10:45:46;3.90;99.90
9043;DHT22;4556;49.150;8.808;2023-03-01T10:48:17;3.90;99.90
9043;DHT22;4556;49.150;8.808;2023-03-01T10:50:49;4.10;99.90
9043;DHT22;4556;49.150;8.808;2023-03-01T10:53:24;6.00;99.90
9043;DHT22;4556;49.150;8.808;2023-03-01T10:56:00;5.00;99.90
9043;DHT22;4556;49.150;8.808;2023-03-01T10:58:28;7.10;99.90
9043;DHT22;4556;49.150;8.808;2023-03-01T11:00:57;6.90;99.90
9043;DHT22;4556;49.150;8.808;2023-03-01T11:03:28;6.00;99.90
9043;DHT22;4556;49.150;8.808;2023-03-01T11:06:05;5.30;99.90
9043;DHT22;4556;49.150;8.808;2023-03-01T11:08:40;4.30;99.90
9043;DHT22;4556;49.150;8.808;2023-03-01T11:11:24;4.30;99.90
9043;DHT22;4556;49.150;8.808;2023-03-01T11:13:57;4.60;99.90
9043;DHT22;4556;49.150;8.808;2023-03-01T11:16:33;4.50;99.90
9043;DHT22;4556;49.150;8.808;2023-03-01T11:19:16;5.20;99.90
9043;DHT22;4556;49.150;8.808;2023-03-01T11:21:58;4.50;99.90
9043;DHT22;4556;49.150;8.808;2023-03-01T11:24:34;6.60;99.90
9043;DHT22;4556;49.150;8.808;2023-03-01T11:27:10;4.70;99.90
9043;DHT22;4556;49.150;8.808;2023-03-01T11:29:44;4.60;99.90
9043;DHT22;4556;49.150;8.808;2023-03-01T11:32:16;4.60;99.90
9043;DHT22;4556;49.150;8.808;2023-03-01T11:34:53;5.40;99.90
9043;DHT22;4556;49.150;8.808;2023-03-01T11:37:28;4.80;99.90
9043;DHT22;4556;49.150;8.808;2023-03-01T11:40:05;4.80;99.90
9043;DHT22;4556;49.150;8.808;2023-03-01T11:42:49;5.00;99.90
9043;DHT22;4556;49.150;8.808;2023-03-01T11:45:19;5.30;99.90
9043;DHT22;4556;49.150;8.808;2023-03-01T11:47:59;5.40;99.90
9043;DHT22;4556;49.150;8.808;2023-03-01T11:50:36;5.50;99.90
9043;DHT22;4556;49.150;8.808;2023-03-01T11:53:19;5.40;99.90
9043;DHT22;4556;49.150;8.808;2023-03-01T11:55:59;5.20;99.90
9043;DHT22;4556;49.150;8.808;2023-03-01T11:58:52;5.20;99.90
9043;DHT22;4556;49.150;8.808;2023-03-01T12:01:33;5.40;99.90
9043;DHT22;4556;49.150;8.808;2023-03-01T12:07:05;5.60;99.90
9043;DHT22;4556;49.150;8.808;2023-03-01T12:09:48;5.70;99.90
9043;DHT22;4556;49.150;8.808;2023-03-01T12:12:29;4.70;99.90
9043;DHT22;4556;49.150;8.808;2023-03-01T12:15:24;7.40;99.90
9043;DHT22;4556;49.150;8.808;2023-03-01T12:18:09;5.90;99.90
9043;DHT22;4556;49.150;8.808;2023-03-01T12:20:44;5.70;99.90
9043;DHT22;4556;49.150;8.808;2023-03-01T12:23:31;6.50;99.90
9043;DHT22;4556;49.150;8.808;2023-03-01T12:26:07;5.90;99.90
9043;DHT22;4556;49.150;8.808;2023-03-01T12:28:48;5.00;99.90
9043;DHT22;4556;49.150;8.808;2023-03-01T12:34:34;6.20;99.90
9043;DHT22;4556;49.150;8.808;2023-03-01T12:37:21;6.10;99.90
9043;DHT22;4556;49.150;8.808;2023-03-01T12:40:17;6.00;99.90
9043;DHT22;4556;49.150;8.808;2023-03-01T12:42:55;6.00;99.90
9043;DHT22;4556;49.150;8.808;2023-03-01T12:45:50;6.30;99.90
9043;DHT22;4556;49.150;8.808;2023-03-01T12:48:31;6.20;99.90
9043;DHT22;4556;49.150;8.808;2023-03-01T12:51:06;6.20;99.90
9043;DHT22;4556;49.150;8.808;2023-03-01T12:53:38;6.30;99.90
9043;DHT22;4556;49.150;8.808;2023-03-01T12:56:10;6.30;99.90
9043;DHT22;4556;49.150;8.808;2023-03-01T12:58:46;6.40;99.90
9043;DHT22;4556;49.150;8.808;2023-03-01T13:01:23;6.30;99.90
9043;DHT22;4556;49.150;8.808;2023-03-01T13:04:04;6.30;99.90
9043;DHT22;4556;49.150;8.808;2023-03-01T13:06:35;6.30;99.90
9043;DHT22;4556;49.150;8.808;2023-03-01T13:09:13;7.50;99.90
9043;DHT22;4556;49.150;8.808;2023-03-01T13:11:43;6.50;99.90
9043;DHT22;4556;49.150;8.808;2023-03-01T13:17:41;6.50;99.90
9043;DHT22;4556;49.150;8.808;2023-03-01T13:20:14;6.90;99.90
9043;DHT22;4556;49.150;8.808;2023-03-01T13:22:41;7.00;99.90
9043;DHT22;4556;49.150;8.808;2023-03-01T13:25:15;7.30;99.90
9043;DHT22;4556;49.150;8.808;2023-03-01T13:27:45;6.90;99.90
9043;DHT22;4556;49.150;8.808;2023-03-01T13:30:41;6.90;99.90
9043;DHT22;4556;49.150;8.808;2023-03-01T13:36:45;6.80;99.90
9043;DHT22;4556;49.150;8.808;2023-03-01T13:39:28;6.60;99.90
9043;DHT22;4556;49.150;8.808;2023-03-01T13:41:57;7.90;99.90
9043;DHT22;4556;49.150;8.808;2023-03-01T13:44:30;6.40;99.90
9043;DHT22;4556;49.150;8.808;2023-03-01T13:47:03;6.60;99.90
9043;DHT22;4556;49.150;8.808;2023-03-01T13:49:43;5.70;99.90
9043;DHT22;4556;49.150;8.808;2023-03-01T13:52:31;8.30;99.90
9043;DHT22;4556;49.150;8.808;2023-03-01T13:54:59;6.90;99.90
9043;DHT22;4556;49.150;8.808;2023-03-01T13:57:32;8.10;99.90
9043;DHT22;4556;49.150;8.808;2023-03-01T14:00:02;8.00;99.90
9043;DHT22;4556;49.150;8.808;2023-03-01T14:02:30;7.20;99.90
9043;DHT22;4556;49.150;8.808;2023-03-01T14:04:58;7.10;99.90
9043;DHT22;4556;49.150;8.808;2023-03-01T14:07:26;7.20;99.90
9043;DHT22;4556;49.150;8.808;2023-03-01T14:09:56;7.70;99.90
9043;DHT22;4556;49.150;8.808;2023-03-01T14:12:42;7.10;99.90
9043;DHT22;4556;49.150;8.808;2023-03-01T14:15:19;7.00;99.90
9043;DHT22;4556;49.150;8.808;2023-03-01T14:18:02;7.30;99.90
9043;DHT22;4556;49.150;8.808;2023-03-01T14:20:32;7.50;99.90
9043;DHT22;4556;49.150;8.808;2023-03-01T14:23:07;7.50;99.90
9043;DHT22;4556;49.150;8.808;2023-03-01T14:25:36;7.80;99.90
9043;DHT22;4556;49.150;8.808;2023-03-01T14:28:15;7.50;99.90
9043;DHT22;4556;49.150;8.808;2023-03-01T14:30:45;7.30;99.90
9043;DHT22;4556;49.150;8.808;2023-03-01T14:33:22;7.40;99.90
9043;DHT22;4556;49.150;8.808;2023-03-01T14:35:58;8.10;99.90
9043;DHT22;4556;49.150;8.808;2023-03-01T14:38:32;7.40;99.90
9043;DHT22;4556;49.150;8.808;2023-03-01T14:41:02;7.30;99.90
9043;DHT22;4556;49.150;8.808;2023-03-01T14:43:30;7.30;99.90
9043;DHT22;4556;49.150;8.808;2023-03-01T14:46:00;7.30;99.90
9043;DHT22;4556;49.150;8.808;2023-03-01T14:48:27;7.40;99.90
9043;DHT22;4556;49.150;8.808;2023-03-01T14:50:56;7.50;99.90
9043;DHT22;4556;49.150;8.808;2023-03-01T14:53:25;9.10;99.90
9043;DHT22;4556;49.150;8.808;2023-03-01T14:55:54;7.10;99.90
9043;DHT22;4556;49.150;8.808;2023-03-01T14:58:24;7.00;99.90
9043;DHT22;4556;49.150;8.808;2023-03-01T15:00:53;7.00;99.90
9043;DHT22;4556;49.150;8.808;2023-03-01T15:03:27;7.20;99.90
9043;DHT22;4556;49.150;8.808;2023-03-01T15:05:57;7.30;99.90
9043;DHT22;4556;49.150;8.808;2023-03-01T15:08:25;7.30;99.90
9043;DHT22;4556;49.150;8.808;2023-03-01T15:11:04;7.40;99.90
9043;DHT22;4556;49.150;8.808;2023-03-01T15:13:32;7.30;99.90
9043;DHT22;4556;49.150;8.808;2023-03-01T15:16:09;7.20;99.90
9043;DHT22;4556;49.150;8.808;2023-03-01T15:18:44;7.10;99.90
9043;DHT22;4556;49.150;8.808;2023-03-01T15:21:17;7.10;99.90
9043;DHT22;4556;49.150;8.808;2023-03-01T15:23:49;7.00;99.90
9043;DHT22;4556;49.150;8.808;2023-03-01T15:26:23;7.00;99.90
9043;DHT22;4556;49.150;8.808;2023-03-01T15:28:54;5.50;99.90
9043;DHT22;4556;49.150;8.808;2023-03-01T15:31:25;7.00;99.90
9043;DHT22;4556;49.150;8.808;2023-03-01T15:34:08;7.10;99.90
9043;DHT22;4556;49.150;8.808;2023-03-01T15:36:40;7.20;99.90
9043;DHT22;4556;49.150;8.808;2023-03-01T15:39:33;8.50;99.90
9043;DHT22;4556;49.150;8.808;2023-03-01T15:42:03;6.80;99.90
9043;DHT22;4556;49.150;8.808;2023-03-01T15:44:33;6.60;99.90
9043;DHT22;4556;49.150;8.808;2023-03-01T15:47:01;6.60;99.90
9043;DHT22;4556;49.150;8.808;2023-03-01T15:49:36;6.80;99.90
9043;DHT22;4556;49.150;8.808;2023-03-01T15:52:05;6.70;99.90
9043;DHT22;4556;49.150;8.808;2023-03-01T15:54:36;7.60;99.90
9043;DHT22;4556;49.150;8.808;2023-03-01T15:57:04;4.20;99.90
9043;DHT22;4556;49.150;8.808;2023-03-01T15:59:31;6.50;99.90
9043;DHT22;4556;49.150;8.808;2023-03-01T16:01:58;7.20;99.90
9043;DHT22;4556;49.150;8.808;2023-03-01T16:04:25;6.40;99.90
9043;DHT22;4556;49.150;8.808;2023-03-01T16:06:54;7.60;99.90
9043;DHT22;4556;49.150;8.808;2023-03-01T16:09:22;6.30;99.90
9043;DHT22;4556;49.150;8.808;2023-03-01T16:11:50;8.00;99.90
9043;DHT22;4556;49.150;8.808;2023-03-01T16:14:18;6.40;99.90
9043;DHT22;4556;49.150;8.808;2023-03-01T16:16:46;6.40;99.90
9043;DHT22;4556;49.150;8.808;2023-03-01T16:19:14;6.30;99.90
9043;DHT22;4556;49.150;8.808;2023-03-01T16:21:41;6.40;99.90
9043;DHT22;4556;49.150;8.808;2023-03-01T16:24:13;6.30;99.90
9043;DHT22;4556;49.150;8.808;2023-03-01T16:26:41;6.30;99.90
9043;DHT22;4556;49.150;8.808;2023-03-01T16:29:08;6.30;99.90
9043;DHT22;4556;49.150;8.808;2023-03-01T16:31:35;6.20;99.90
9043;DHT22;4556;49.150;8.808;2023-03-01T16:34:03;6.20;99.90
9043;DHT22;4556;49.150;8.808;2023-03-01T16:36:30;7.00;99.90
9043;DHT22;4556;49.150;8.808;2023-03-01T16:38:58;7.60;99.90
9043;DHT22;4556;49.150;8.808;2023-03-01T16:41:28;6.10;99.90
9043;DHT22;4556;49.150;8.808;2023-03-01T16:43:55;6.20;99.90
9043;DHT22;4556;49.150;8.808;2023-03-01T16:46:23;6.10;99.90
9043;DHT22;4556;49.150;8.808;2023-03-01T16:48:52;8.10;99.90
9043;DHT22;4556;49.150;8.808;2023-03-01T16:51:20;5.90;99.90